Aviation Digital Data Service (ADDS)

Output produced by TAFs form (0602 UTC 21 September 2014)
found at http://aviationweather.gov/adds/tafs/
 
KCNM 210522Z 2106/2206 34008KT P6SM BKN035 OVC070 
     TEMPO 2106/2110 3SM TSRA BR BKN005 OVC020CB 
     FM211000 04005KT P6SM OVC025 
     TEMPO 2110/2114 2SM TSRA BR BKN005 OVC025CB 
     FM211400 06007KT P6SM OVC020 
     TEMPO 2114/2118 3SM TSRA BR BKN005 OVC025CB 
     FM212100 07012KT P6SM BKN040 
     TEMPO 2121/2124 2SM TSRA BR BKN005 OVC025CB